Sunkist, California
Current Conditions -  °F | °C
As of 5:53 AM on Friday 24 Oct 2014 (Local Time) from KFUL Reporting Station
Clear Clear  
Wind Chill: 58°   Ceiling: Unl
Heat Index: 58°   Visibility: 10mi
Dew Point: 53°   Wind: 0mph
Humidity: 84%   Direction: NA
Pressure: 29.94"   Gusts: NA
Location:  33.8393°N, 117.87°W
Report Text: KFUL 241253Z 00000KT 10SM CLR 14/12 A2994 RMK AO2 SLP139 T01440117 $
Loading
Personal Weather Stations






























Interactive Weather Map
Tropical Storm Tracking
New forecast layout! Learn more

10-Day Weather Forecast

Advertisements
Track Severe Weather on mobile